sensor_id;sensor_type;location;lat;lon;timestamp;pressure;altitude;pressure_sealevel;temperature;humidity
35551;BME280;21655;46.056;13.616;2023-03-03T00:01:08;100443.25;;;8.23;100.00
35551;BME280;21655;46.056;13.616;2023-03-03T00:03:34;100442.25;;;8.24;100.00
35551;BME280;21655;46.056;13.616;2023-03-03T00:06:02;100444.44;;;8.21;100.00
35551;BME280;21655;46.056;13.616;2023-03-03T00:08:28;100441.44;;;8.14;100.00
35551;BME280;21655;46.056;13.616;2023-03-03T00:10:53;100439.00;;;8.11;100.00
35551;BME280;21655;46.056;13.616;2023-03-03T00:13:24;100431.19;;;8.07;100.00
35551;BME280;21655;46.056;13.616;2023-03-03T00:15:52;100440.53;;;8.06;100.00
35551;BME280;21655;46.056;13.616;2023-03-03T00:18:27;100440.53;;;8.06;100.00
35551;BME280;21655;46.056;13.616;2023-03-03T00:20:57;100442.09;;;8.08;100.00
35551;BME280;21655;46.056;13.616;2023-03-03T00:23:34;100441.94;;;8.10;100.00
35551;BME280;21655;46.056;13.616;2023-03-03T00:26:00;100436.72;;;8.07;100.00
35551;BME280;21655;46.056;13.616;2023-03-03T00:28:27;100431.94;;;8.09;100.00
35551;BME280;21655;46.056;13.616;2023-03-03T00:30:55;100433.97;;;8.07;100.00
35551;BME280;21655;46.056;13.616;2023-03-03T00:33:24;100441.25;;;8.08;100.00
35551;BME280;21655;46.056;13.616;2023-03-03T00:35:56;100426.19;;;8.02;100.00
35551;BME280;21655;46.056;13.616;2023-03-03T00:38:22;100427.94;;;8.03;100.00
35551;BME280;21655;46.056;13.616;2023-03-03T00:40:48;100429.19;;;8.09;100.00
35551;BME280;21655;46.056;13.616;2023-03-03T00:45:55;100423.09;;;8.05;100.00
35551;BME280;21655;46.056;13.616;2023-03-03T00:50:46;100421.53;;;8.03;100.00
35551;BME280;21655;46.056;13.616;2023-03-03T00:53:17;100426.00;;;8.04;100.00
35551;BME280;21655;46.056;13.616;2023-03-03T00:55:43;100416.56;;;8.06;100.00
35551;BME280;21655;46.056;13.616;2023-03-03T00:58:10;100404.47;;;8.07;100.00
35551;BME280;21655;46.056;13.616;2023-03-03T01:00:36;100417.22;;;8.00;100.00
35551;BME280;21655;46.056;13.616;2023-03-03T01:03:12;100407.91;;;8.01;100.00
35551;BME280;21655;46.056;13.616;2023-03-03T01:05:38;100408.38;;;7.97;100.00
35551;BME280;21655;46.056;13.616;2023-03-03T01:08:03;100408.53;;;7.95;100.00
35551;BME280;21655;46.056;13.616;2023-03-03T01:10:31;100410.78;;;7.92;100.00
35551;BME280;21655;46.056;13.616;2023-03-03T01:12:58;100403.66;;;7.89;100.00
35551;BME280;21655;46.056;13.616;2023-03-03T01:15:24;100397.13;;;7.90;100.00
35551;BME280;21655;46.056;13.616;2023-03-03T01:17:50;100403.34;;;7.92;100.00
35551;BME280;21655;46.056;13.616;2023-03-03T01:20:16;100387.97;;;7.90;100.00
35551;BME280;21655;46.056;13.616;2023-03-03T01:22:42;100385.25;;;7.98;100.00
35551;BME280;21655;46.056;13.616;2023-03-03T01:25:08;100396.09;;;7.91;100.00
35551;BME280;21655;46.056;13.616;2023-03-03T01:27:34;100385.25;;;7.98;100.00
35551;BME280;21655;46.056;13.616;2023-03-03T01:30:01;100384.22;;;7.99;100.00
35551;BME280;21655;46.056;13.616;2023-03-03T01:32:26;100385.47;;;8.04;100.00
35551;BME280;21655;46.056;13.616;2023-03-03T01:34:52;100385.69;;;8.11;100.00
35551;BME280;21655;46.056;13.616;2023-03-03T01:37:18;100374.25;;;8.06;100.00
35551;BME280;21655;46.056;13.616;2023-03-03T01:39:48;100378.03;;;8.05;100.00
35551;BME280;21655;46.056;13.616;2023-03-03T01:42:14;100373.56;;;8.04;100.00
35551;BME280;21655;46.056;13.616;2023-03-03T01:44:40;100372.53;;;8.05;100.00
35551;BME280;21655;46.056;13.616;2023-03-03T01:47:24;100372.38;;;8.06;100.00
35551;BME280;21655;46.056;13.616;2023-03-03T01:50:05;100372.91;;;8.10;100.00
35551;BME280;21655;46.056;13.616;2023-03-03T01:52:37;100373.44;;;8.13;100.00
35551;BME280;21655;46.056;13.616;2023-03-03T01:55:08;100375.75;;;8.18;100.00
35551;BME280;21655;46.056;13.616;2023-03-03T01:57:39;100368.59;;;8.15;100.00
35551;BME280;21655;46.056;13.616;2023-03-03T02:00:09;100368.44;;;8.17;100.00
35551;BME280;21655;46.056;13.616;2023-03-03T02:02:35;100368.59;;;8.15;100.00
35551;BME280;21655;46.056;13.616;2023-03-03T02:05:02;100363.06;;;8.07;100.00
35551;BME280;21655;46.056;13.616;2023-03-03T02:07:28;100358.72;;;8.05;100.00
35551;BME280;21655;46.056;13.616;2023-03-03T02:10:05;100355.81;;;8.06;100.00
35551;BME280;21655;46.056;13.616;2023-03-03T02:12:36;100364.78;;;8.08;100.00
35551;BME280;21655;46.056;13.616;2023-03-03T02:15:27;100361.19;;;8.08;100.00
35551;BME280;21655;46.056;13.616;2023-03-03T02:18:01;100346.97;;;8.03;100.00
35551;BME280;21655;46.056;13.616;2023-03-03T02:23:21;100352.34;;;8.04;100.00
35551;BME280;21655;46.056;13.616;2023-03-03T02:28:30;100336.28;;;8.00;100.00
35551;BME280;21655;46.056;13.616;2023-03-03T02:30:57;100342.66;;;8.00;100.00
35551;BME280;21655;46.056;13.616;2023-03-03T02:33:24;100342.13;;;7.97;100.00
35551;BME280;21655;46.056;13.616;2023-03-03T02:35:50;100336.41;;;7.98;100.00
35551;BME280;21655;46.056;13.616;2023-03-03T02:38:18;100337.31;;;7.99;100.00
35551;BME280;21655;46.056;13.616;2023-03-03T02:41:11;100338.88;;;8.01;100.00
35551;BME280;21655;46.056;13.616;2023-03-03T02:44:05;100333.16;;;7.95;100.00
35551;BME280;21655;46.056;13.616;2023-03-03T02:46:37;100335.56;;;7.98;100.00
35551;BME280;21655;46.056;13.616;2023-03-03T02:49:04;100317.97;;;7.99;100.00
35551;BME280;21655;46.056;13.616;2023-03-03T02:51:30;100326.81;;;8.02;100.00
35551;BME280;21655;46.056;13.616;2023-03-03T02:53:56;100323.34;;;8.00;100.00
35551;BME280;21655;46.056;13.616;2023-03-03T02:56:22;100324.69;;;7.96;100.00
35551;BME280;21655;46.056;13.616;2023-03-03T02:58:47;100326.59;;;7.96;100.00
35551;BME280;21655;46.056;13.616;2023-03-03T03:01:12;100316.25;;;7.98;100.00
35551;BME280;21655;46.056;13.616;2023-03-03T03:03:38;100326.41;;;7.97;100.00
35551;BME280;21655;46.056;13.616;2023-03-03T03:06:04;100325.22;;;8.00;100.00
35551;BME280;21655;46.056;13.616;2023-03-03T03:08:29;100325.38;;;7.98;100.00
35551;BME280;21655;46.056;13.616;2023-03-03T03:10:55;100321.91;;;7.96;100.00
35551;BME280;21655;46.056;13.616;2023-03-03T03:13:22;100306.22;;;7.97;100.00
35551;BME280;21655;46.056;13.616;2023-03-03T03:15:48;100318.78;;;7.91;100.00
35551;BME280;21655;46.056;13.616;2023-03-03T03:18:14;100316.38;;;7.88;100.00
35551;BME280;21655;46.056;13.616;2023-03-03T03:20:40;100321.88;;;7.88;100.00
35551;BME280;21655;46.056;13.616;2023-03-03T03:23:07;100326.22;;;7.91;100.00
35551;BME280;21655;46.056;13.616;2023-03-03T03:25:33;100325.00;;;7.85;100.00
35551;BME280;21655;46.056;13.616;2023-03-03T03:27:58;100325.69;;;7.87;100.00
35551;BME280;21655;46.056;13.616;2023-03-03T03:30:24;100322.03;;;7.87;100.00
35551;BME280;21655;46.056;13.616;2023-03-03T03:32:49;100320.16;;;7.87;100.00
35551;BME280;21655;46.056;13.616;2023-03-03T03:35:15;100321.19;;;7.86;100.00
35551;BME280;21655;46.056;13.616;2023-03-03T03:37:42;100319.28;;;7.87;100.00
35551;BME280;21655;46.056;13.616;2023-03-03T03:40:08;100316.19;;;7.90;100.00
35551;BME280;21655;46.056;13.616;2023-03-03T03:42:34;100307.91;;;7.90;100.00
35551;BME280;21655;46.056;13.616;2023-03-03T03:44:59;100315.34;;;7.89;100.00
35551;BME280;21655;46.056;13.616;2023-03-03T03:47:25;100310.84;;;7.88;100.00
35551;BME280;21655;46.056;13.616;2023-03-03T03:49:50;100310.66;;;7.90;100.00
35551;BME280;21655;46.056;13.616;2023-03-03T03:52:16;100304.31;;;7.89;100.00
35551;BME280;21655;46.056;13.616;2023-03-03T03:54:41;100313.63;;;7.88;100.00
35551;BME280;21655;46.056;13.616;2023-03-03T03:57:07;100312.22;;;7.84;100.00
35551;BME280;21655;46.056;13.616;2023-03-03T03:59:32;100305.81;;;7.84;100.00
35551;BME280;21655;46.056;13.616;2023-03-03T04:01:58;100306.84;;;7.83;100.00
35551;BME280;21655;46.056;13.616;2023-03-03T04:04:23;100303.94;;;7.84;100.00
35551;BME280;21655;46.056;13.616;2023-03-03T04:06:49;100303.06;;;7.84;100.00
35551;BME280;21655;46.056;13.616;2023-03-03T04:09:15;100302.22;;;7.83;100.00
35551;BME280;21655;46.056;13.616;2023-03-03T04:11:40;100297.69;;;7.82;100.00
35551;BME280;21655;46.056;13.616;2023-03-03T04:14:06;100293.94;;;7.83;100.00
35551;BME280;21655;46.056;13.616;2023-03-03T04:16:31;100297.69;;;7.82;100.00
35551;BME280;21655;46.056;13.616;2023-03-03T04:18:57;100297.31;;;7.77;100.00
35551;BME280;21655;46.056;13.616;2023-03-03T04:21:22;100296.47;;;7.77;100.00
35551;BME280;21655;46.056;13.616;2023-03-03T04:23:48;100299.22;;;7.77;100.00
35551;BME280;21655;46.056;13.616;2023-03-03T04:26:13;100297.66;;;7.74;100.00
35551;BME280;21655;46.056;13.616;2023-03-03T04:28:39;100293.50;;;7.70;100.00
35551;BME280;21655;46.056;13.616;2023-03-03T04:31:04;100296.97;;;7.72;100.00
35551;BME280;21655;46.056;13.616;2023-03-03T04:33:29;100297.44;;;7.68;100.00
35551;BME280;21655;46.056;13.616;2023-03-03T04:35:55;100302.47;;;7.72;100.00
35551;BME280;21655;46.056;13.616;2023-03-03T04:38:21;100305.25;;;7.72;100.00
35551;BME280;21655;46.056;13.616;2023-03-03T04:40:46;100298.63;;;7.65;100.00
35551;BME280;21655;46.056;13.616;2023-03-03T04:43:13;100309.50;;;7.67;100.00
35551;BME280;21655;46.056;13.616;2023-03-03T04:45:39;100298.84;;;7.72;100.00
35551;BME280;21655;46.056;13.616;2023-03-03T04:48:05;100302.13;;;7.67;100.00
35551;BME280;21655;46.056;13.616;2023-03-03T04:50:30;100295.56;;;7.68;100.00
35551;BME280;21655;46.056;13.616;2023-03-03T04:52:56;100296.41;;;7.69;100.00
35551;BME280;21655;46.056;13.616;2023-03-03T04:55:21;100299.88;;;7.71;100.00
35551;BME280;21655;46.056;13.616;2023-03-03T04:57:47;100304.34;;;7.72;100.00
35551;BME280;21655;46.056;13.616;2023-03-03T05:00:13;100296.09;;;7.72;100.00
35551;BME280;21655;46.056;13.616;2023-03-03T05:02:39;100299.38;;;7.75;100.00
35551;BME280;21655;46.056;13.616;2023-03-03T05:05:06;100298.69;;;7.73;100.00
35551;BME280;21655;46.056;13.616;2023-03-03T05:07:31;100297.44;;;7.68;100.00
35551;BME280;21655;46.056;13.616;2023-03-03T05:09:57;100292.47;;;7.71;100.00
35551;BME280;21655;46.056;13.616;2023-03-03T05:12:22;100296.75;;;7.66;100.00
35551;BME280;21655;46.056;13.616;2023-03-03T05:14:48;100292.28;;;7.73;100.00
35551;BME280;21655;46.056;13.616;2023-03-03T05:17:13;100300.09;;;7.77;100.00
35551;BME280;21655;46.056;13.616;2023-03-03T05:19:39;100294.94;;;7.82;100.00
35551;BME280;21655;46.056;13.616;2023-03-03T05:22:04;100294.41;;;7.79;100.00
35551;BME280;21655;46.056;13.616;2023-03-03T05:24:30;100290.25;;;7.75;100.00
35551;BME280;21655;46.056;13.616;2023-03-03T05:26:55;100290.25;;;7.75;100.00
35551;BME280;21655;46.056;13.616;2023-03-03T05:29:21;100294.53;;;7.69;100.00
35551;BME280;21655;46.056;13.616;2023-03-03T05:31:46;100292.41;;;7.63;100.00
35551;BME280;21655;46.056;13.616;2023-03-03T05:34:12;100289.50;;;7.65;100.00
35551;BME280;21655;46.056;13.616;2023-03-03T05:36:37;100285.72;;;7.66;100.00
35551;BME280;21655;46.056;13.616;2023-03-03T05:39:03;100280.53;;;7.63;100.00
35551;BME280;21655;46.056;13.616;2023-03-03T05:41:29;100289.66;;;7.63;100.00
35551;BME280;21655;46.056;13.616;2023-03-03T05:43:54;100287.78;;;7.64;100.00
35551;BME280;21655;46.056;13.616;2023-03-03T05:46:20;100286.88;;;7.63;100.00
35551;BME280;21655;46.056;13.616;2023-03-03T05:48:45;100280.69;;;7.61;100.00
35551;BME280;21655;46.056;13.616;2023-03-03T05:51:11;100292.94;;;7.59;100.00
35551;BME280;21655;46.056;13.616;2023-03-03T05:53:36;100288.25;;;7.59;100.00
35551;BME280;21655;46.056;13.616;2023-03-03T05:56:02;100291.91;;;7.60;100.00
35551;BME280;21655;46.056;13.616;2023-03-03T05:58:28;100301.56;;;7.64;100.00
35551;BME280;21655;46.056;13.616;2023-03-03T06:00:54;100309.38;;;7.68;100.00
35551;BME280;21655;46.056;13.616;2023-03-03T06:03:19;100308.47;;;7.68;100.00
35551;BME280;21655;46.056;13.616;2023-03-03T06:05:45;100300.91;;;7.70;100.00
35551;BME280;21655;46.056;13.616;2023-03-03T06:08:10;100304.34;;;7.72;100.00
35551;BME280;21655;46.056;13.616;2023-03-03T06:10:36;100311.47;;;7.74;100.00
35551;BME280;21655;46.056;13.616;2023-03-03T06:13:01;100303.03;;;7.76;100.00
35551;BME280;21655;46.056;13.616;2023-03-03T06:15:27;100310.28;;;7.77;100.00
35551;BME280;21655;46.056;13.616;2023-03-03T06:17:53;100310.09;;;7.78;100.00
35551;BME280;21655;46.056;13.616;2023-03-03T06:20:18;100312.22;;;7.84;100.00
35551;BME280;21655;46.056;13.616;2023-03-03T06:22:44;100312.03;;;7.86;100.00
35551;BME280;21655;46.056;13.616;2023-03-03T06:25:09;100315.69;;;7.94;100.00
35551;BME280;21655;46.056;13.616;2023-03-03T06:27:35;100329.56;;;8.02;100.00
35551;BME280;21655;46.056;13.616;2023-03-03T06:30:00;100319.56;;;8.01;100.00
35551;BME280;21655;46.056;13.616;2023-03-03T06:32:26;100313.50;;;8.06;100.00
35551;BME280;21655;46.056;13.616;2023-03-03T06:34:51;100318.88;;;8.07;100.00
35551;BME280;21655;46.056;13.616;2023-03-03T06:37:17;100314.25;;;8.08;100.00
35551;BME280;21655;46.056;13.616;2023-03-03T06:39:42;100325.00;;;8.19;100.00
35551;BME280;21655;46.056;13.616;2023-03-03T06:42:08;100333.66;;;8.24;100.00
35551;BME280;21655;46.056;13.616;2023-03-03T06:44:34;100327.63;;;8.28;100.00
35551;BME280;21655;46.056;13.616;2023-03-03T06:47:00;100323.13;;;8.27;100.00
35551;BME280;21655;46.056;13.616;2023-03-03T06:49:25;100327.81;;;8.35;100.00
35551;BME280;21655;46.056;13.616;2023-03-03T06:51:51;100327.19;;;8.41;100.00
35551;BME280;21655;46.056;13.616;2023-03-03T06:54:21;100327.66;;;8.36;100.00
35551;BME280;21655;46.056;13.616;2023-03-03T06:56:58;100329.75;;;8.34;100.00
35551;BME280;21655;46.056;13.616;2023-03-03T06:59:26;100322.50;;;8.41;100.00
35551;BME280;21655;46.056;13.616;2023-03-03T07:01:53;100328.75;;;8.51;100.00
35551;BME280;21655;46.056;13.616;2023-03-03T07:04:26;100341.88;;;8.49;100.00
35551;BME280;21655;46.056;13.616;2023-03-03T07:07:19;100338.09;;;8.50;100.00
35551;BME280;21655;46.056;13.616;2023-03-03T07:09:48;100339.47;;;8.54;100.00
35551;BME280;21655;46.056;13.616;2023-03-03T07:12:22;100337.41;;;8.56;100.00
35551;BME280;21655;46.056;13.616;2023-03-03T07:14:51;100343.63;;;8.58;100.00
35551;BME280;21655;46.056;13.616;2023-03-03T07:17:23;100343.28;;;8.61;100.00
35551;BME280;21655;46.056;13.616;2023-03-03T07:19:48;100348.66;;;8.63;100.00
35551;BME280;21655;46.056;13.616;2023-03-03T07:22:18;100348.47;;;8.64;100.00
35551;BME280;21655;46.056;13.616;2023-03-03T07:24:46;100348.34;;;8.74;100.00
35551;BME280;21655;46.056;13.616;2023-03-03T07:27:24;100341.94;;;8.81;100.00
35551;BME280;21655;46.056;13.616;2023-03-03T07:29:52;100349.75;;;8.94;100.00
35551;BME280;21655;46.056;13.616;2023-03-03T07:34:57;100350.97;;;9.07;100.00
35551;BME280;21655;46.056;13.616;2023-03-03T07:37:36;100349.09;;;9.16;100.00
35551;BME280;21655;46.056;13.616;2023-03-03T07:40:30;100349.25;;;9.14;100.00
35551;BME280;21655;46.056;13.616;2023-03-03T07:42:58;100352.53;;;9.18;100.00
35551;BME280;21655;46.056;13.616;2023-03-03T07:45:28;100355.50;;;9.24;100.00
35551;BME280;21655;46.056;13.616;2023-03-03T07:48:24;100353.75;;;9.23;100.00
35551;BME280;21655;46.056;13.616;2023-03-03T07:50:51;100352.72;;;9.24;100.00
35551;BME280;21655;46.056;13.616;2023-03-03T07:53:26;100357.91;;;9.27;100.00
35551;BME280;21655;46.056;13.616;2023-03-03T07:55:53;100344.59;;;9.38;100.00
35551;BME280;21655;46.056;13.616;2023-03-03T07:58:26;100352.88;;;9.54;100.00
35551;BME280;21655;46.056;13.616;2023-03-03T08:03:56;100358.56;;;9.77;100.00
35551;BME280;21655;46.056;13.616;2023-03-03T08:08:54;100358.16;;;10.20;100.00
35551;BME280;21655;46.056;13.616;2023-03-03T08:11:24;100357.59;;;10.32;100.00
35551;BME280;21655;46.056;13.616;2023-03-03T08:13:49;100363.44;;;10.45;100.00
35551;BME280;21655;46.056;13.616;2023-03-03T08:18:45;100364.56;;;10.67;100.00
35551;BME280;21655;46.056;13.616;2023-03-03T08:21:16;100366.19;;;10.84;100.00
35551;BME280;21655;46.056;13.616;2023-03-03T08:23:43;100366.78;;;11.02;100.00
35551;BME280;21655;46.056;13.616;2023-03-03T08:26:09;100365.78;;;11.17;100.00
35551;BME280;21655;46.056;13.616;2023-03-03T08:28:36;100375.53;;;11.13;100.00
35551;BME280;21655;46.056;13.616;2023-03-03T08:31:02;100367.91;;;11.15;100.00
35551;BME280;21655;46.056;13.616;2023-03-03T08:33:28;100356.78;;;11.15;100.00
35551;BME280;21655;46.056;13.616;2023-03-03T08:35:53;100360.69;;;11.06;100.00
35551;BME280;21655;46.056;13.616;2023-03-03T08:38:20;100356.91;;;11.21;100.00
35551;BME280;21655;46.056;13.616;2023-03-03T08:40:47;100366.81;;;11.24;100.00
35551;BME280;21655;46.056;13.616;2023-03-03T08:43:13;100368.41;;;11.41;100.00
35551;BME280;21655;46.056;13.616;2023-03-03T08:45:47;100365.06;;;11.23;100.00
35551;BME280;21655;46.056;13.616;2023-03-03T08:48:13;100366.44;;;11.27;100.00
35551;BME280;21655;46.056;13.616;2023-03-03T08:50:38;100366.13;;;11.22;100.00
35551;BME280;21655;46.056;13.616;2023-03-03T08:53:04;100362.78;;;11.26;100.00
35551;BME280;21655;46.056;13.616;2023-03-03T08:55:30;100373.47;;;11.37;100.00
35551;BME280;21655;46.056;13.616;2023-03-03T08:57:55;100367.41;;;11.34;100.00
35551;BME280;21655;46.056;13.616;2023-03-03T09:00:21;100368.41;;;11.41;100.00
35551;BME280;21655;46.056;13.616;2023-03-03T09:02:48;100368.44;;;11.33;100.00
35551;BME280;21655;46.056;13.616;2023-03-03T09:05:15;100374.69;;;11.35;100.00
35551;BME280;21655;46.056;13.616;2023-03-03T09:07:42;100369.88;;;11.29;100.00
35551;BME280;21655;46.056;13.616;2023-03-03T09:10:10;100377.03;;;11.23;100.00
35551;BME280;21655;46.056;13.616;2023-03-03T09:12:44;100375.25;;;11.30;100.00
35551;BME280;21655;46.056;13.616;2023-03-03T09:15:31;100382.81;;;11.14;100.00
35551;BME280;21655;46.056;13.616;2023-03-03T09:18:18;100379.19;;;11.14;100.00
35551;BME280;21655;46.056;13.616;2023-03-03T09:20:50;100389.50;;;10.97;100.00
35551;BME280;21655;46.056;13.616;2023-03-03T09:31:51;100398.53;;;10.61;100.00
35551;BME280;21655;46.056;13.616;2023-03-03T09:37:12;100399.84;;;10.81;100.00
35551;BME280;21655;46.056;13.616;2023-03-03T09:39:39;100404.28;;;10.90;100.00
35551;BME280;21655;46.056;13.616;2023-03-03T09:48:08;100408.47;;;11.46;100.00
35551;BME280;21655;46.056;13.616;2023-03-03T09:56:38;100412.38;;;11.60;100.00
35551;BME280;21655;46.056;13.616;2023-03-03T09:59:40;100408.16;;;11.64;100.00
35551;BME280;21655;46.056;13.616;2023-03-03T10:05:55;100407.19;;;11.79;100.00
35551;BME280;21655;46.056;13.616;2023-03-03T10:10:52;100412.66;;;11.87;100.00
35551;BME280;21655;46.056;13.616;2023-03-03T10:19:23;100418.78;;;12.34;100.00
35551;BME280;21655;46.056;13.616;2023-03-03T10:22:27;100423.19;;;12.43;100.00
35551;BME280;21655;46.056;13.616;2023-03-03T10:27:59;100421.16;;;12.52;100.00
35551;BME280;21655;46.056;13.616;2023-03-03T10:30:39;100424.09;;;13.02;100.00
35551;BME280;21655;46.056;13.616;2023-03-03T10:33:32;100416.00;;;13.07;100.00
35551;BME280;21655;46.056;13.616;2023-03-03T10:36:23;100421.59;;;13.27;100.00
35551;BME280;21655;46.056;13.616;2023-03-03T10:44:23;100407.28;;;13.93;94.36
35551;BME280;21655;46.056;13.616;2023-03-03T10:50:30;100404.84;;;13.84;91.89
35551;BME280;21655;46.056;13.616;2023-03-03T10:58:48;100399.97;;;14.34;86.05
35551;BME280;21655;46.056;13.616;2023-03-03T11:11:49;100398.97;;;13.51;91.68
35551;BME280;21655;46.056;13.616;2023-03-03T11:19:32;100399.34;;;13.90;93.19
35551;BME280;21655;46.056;13.616;2023-03-03T11:35:50;100387.41;;;13.75;91.99
35551;BME280;21655;46.056;13.616;2023-03-03T11:41:07;100391.38;;;13.66;90.47
35551;BME280;21655;46.056;13.616;2023-03-03T11:43:42;100389.94;;;13.70;90.84
35551;BME280;21655;46.056;13.616;2023-03-03T11:46:16;100388.66;;;13.94;90.84
35551;BME280;21655;46.056;13.616;2023-03-03T11:54:04;100377.09;;;14.18;88.94
35551;BME280;21655;46.056;13.616;2023-03-03T11:56:41;100371.16;;;14.27;88.95
35551;BME280;21655;46.056;13.616;2023-03-03T12:10:49;100363.03;;;14.66;81.74
35551;BME280;21655;46.056;13.616;2023-03-03T12:16:14;100358.16;;;14.81;81.57
35551;BME280;21655;46.056;13.616;2023-03-03T12:24:50;100361.00;;;14.20;81.55
35551;BME280;21655;46.056;13.616;2023-03-03T12:29:53;100367.38;;;13.86;83.21
35551;BME280;21655;46.056;13.616;2023-03-03T12:38:53;100361.38;;;13.89;85.66
35551;BME280;21655;46.056;13.616;2023-03-03T12:46:45;100351.00;;;13.77;86.33
35551;BME280;21655;46.056;13.616;2023-03-03T12:49:16;100352.19;;;13.95;86.11
35551;BME280;21655;46.056;13.616;2023-03-03T12:52:00;100361.03;;;13.99;84.83
35551;BME280;21655;46.056;13.616;2023-03-03T13:02:38;100352.38;;;14.42;84.09
35551;BME280;21655;46.056;13.616;2023-03-03T13:08:28;100367.38;;;13.86;84.82
35551;BME280;21655;46.056;13.616;2023-03-03T13:16:13;100349.81;;;13.65;85.59
35551;BME280;21655;46.056;13.616;2023-03-03T13:22:08;100346.75;;;13.60;87.31
35551;BME280;21655;46.056;13.616;2023-03-03T13:27:44;100348.13;;;13.70;86.40
35551;BME280;21655;46.056;13.616;2023-03-03T13:30:21;100341.84;;;13.62;87.48
35551;BME280;21655;46.056;13.616;2023-03-03T13:33:07;100348.53;;;13.67;87.87
35551;BME280;21655;46.056;13.616;2023-03-03T13:35:44;100337.19;;;13.69;87.19
35551;BME280;21655;46.056;13.616;2023-03-03T13:38:18;100339.06;;;13.62;86.88
35551;BME280;21655;46.056;13.616;2023-03-03T13:40:51;100327.56;;;13.71;87.84
35551;BME280;21655;46.056;13.616;2023-03-03T13:43:28;100331.50;;;13.83;89.06
35551;BME280;21655;46.056;13.616;2023-03-03T13:46:00;100331.31;;;13.85;87.56
35551;BME280;21655;46.056;13.616;2023-03-03T13:48:44;100332.25;;;13.71;86.40
35551;BME280;21655;46.056;13.616;2023-03-03T13:51:41;100329.41;;;13.64;88.05
35551;BME280;21655;46.056;13.616;2023-03-03T14:05:26;100328.91;;;13.54;89.01
35551;BME280;21655;46.056;13.616;2023-03-03T14:08:00;100324.25;;;13.61;91.19
35551;BME280;21655;46.056;13.616;2023-03-03T14:10:35;100320.81;;;13.59;91.11
35551;BME280;21655;46.056;13.616;2023-03-03T14:13:18;100323.75;;;13.51;89.70
35551;BME280;21655;46.056;13.616;2023-03-03T14:15:57;100321.66;;;13.81;90.64
35551;BME280;21655;46.056;13.616;2023-03-03T14:18:38;100321.47;;;13.89;88.46
35551;BME280;21655;46.056;13.616;2023-03-03T14:21:13;100321.75;;;13.94;86.89
35551;BME280;21655;46.056;13.616;2023-03-03T14:26:14;100321.22;;;14.11;85.31
35551;BME280;21655;46.056;13.616;2023-03-03T14:28:42;100308.25;;;14.18;84.24
35551;BME280;21655;46.056;13.616;2023-03-03T14:33:59;100310.94;;;14.12;84.36
35551;BME280;21655;46.056;13.616;2023-03-03T14:36:28;100311.50;;;14.28;86.70
35551;BME280;21655;46.056;13.616;2023-03-03T14:38:55;100308.44;;;14.17;86.08
35551;BME280;21655;46.056;13.616;2023-03-03T14:41:22;100312.81;;;14.05;86.47
35551;BME280;21655;46.056;13.616;2023-03-03T14:44:25;100312.81;;;14.05;87.76
35551;BME280;21655;46.056;13.616;2023-03-03T14:47:24;100316.38;;;13.92;87.00
35551;BME280;21655;46.056;13.616;2023-03-03T14:49:51;100325.16;;;13.89;87.94
35551;BME280;21655;46.056;13.616;2023-03-03T14:52:24;100325.22;;;13.75;87.48
35551;BME280;21655;46.056;13.616;2023-03-03T14:54:53;100321.72;;;13.66;88.29
35551;BME280;21655;46.056;13.616;2023-03-03T15:00:03;100321.72;;;13.66;88.02
35551;BME280;21655;46.056;13.616;2023-03-03T15:05:27;100317.22;;;13.65;89.27
35551;BME280;21655;46.056;13.616;2023-03-03T15:10:44;100328.25;;;13.31;91.55
35551;BME280;21655;46.056;13.616;2023-03-03T15:13:33;100318.97;;;13.24;91.61
35551;BME280;21655;46.056;13.616;2023-03-03T15:18:25;100329.13;;;13.11;93.92
35551;BME280;21655;46.056;13.616;2023-03-03T15:26:47;100322.66;;;13.11;96.74
35551;BME280;21655;46.056;13.616;2023-03-03T15:29:27;100323.19;;;13.00;96.24
35551;BME280;21655;46.056;13.616;2023-03-03T15:32:32;100321.94;;;13.02;98.49
35551;BME280;21655;46.056;13.616;2023-03-03T15:35:18;100320.59;;;12.98;99.88
35551;BME280;21655;46.056;13.616;2023-03-03T15:38:15;100317.44;;;12.87;100.00
35551;BME280;21655;46.056;13.616;2023-03-03T15:46:39;100325.22;;;12.77;100.00
35551;BME280;21655;46.056;13.616;2023-03-03T15:55:05;100343.16;;;12.74;100.00
35551;BME280;21655;46.056;13.616;2023-03-03T16:01:10;100346.38;;;12.57;100.00
35551;BME280;21655;46.056;13.616;2023-03-03T16:03:18;100343.00;;;12.47;100.00
35551;BME280;21655;46.056;13.616;2023-03-03T16:06:00;100346.31;;;12.36;100.00
35551;BME280;21655;46.056;13.616;2023-03-03T16:11:23;100344.94;;;12.17;100.00
35551;BME280;21655;46.056;13.616;2023-03-03T16:17:17;100363.41;;;11.96;100.00
35551;BME280;21655;46.056;13.616;2023-03-03T16:20:00;100364.34;;;11.88;100.00
35551;BME280;21655;46.056;13.616;2023-03-03T16:41:41;100380.41;;;11.11;100.00
35551;BME280;21655;46.056;13.616;2023-03-03T16:46:45;100392.28;;;10.97;100.00
35551;BME280;21655;46.056;13.616;2023-03-03T16:49:36;100389.59;;;10.89;100.00
35551;BME280;21655;46.056;13.616;2023-03-03T16:52:09;100397.94;;;10.81;100.00
35551;BME280;21655;46.056;13.616;2023-03-03T16:54:45;100396.56;;;10.77;100.00
35551;BME280;21655;46.056;13.616;2023-03-03T16:57:43;100402.66;;;10.73;100.00
35551;BME280;21655;46.056;13.616;2023-03-03T17:00:23;100399.72;;;10.66;100.00